createdAt,value
2023-09-21T00:08:02.245Z,21.36
2023-09-21T00:18:06.786Z,21.34
2023-09-21T00:28:13.757Z,21.35
2023-09-21T00:38:16.323Z,21.35
2023-09-21T00:48:24.004Z,21.39
2023-09-21T00:58:27.018Z,21.33
2023-09-21T01:08:31.146Z,21.27
2023-09-21T01:18:33.956Z,21.35
2023-09-21T01:28:38.235Z,21.26
2023-09-21T01:38:45.767Z,21.18
2023-09-21T01:48:53.203Z,21.09
2023-09-21T01:58:56.093Z,20.83
2023-09-21T02:09:01.174Z,20.79
2023-09-21T02:19:03.833Z,20.76
2023-09-21T02:29:07.677Z,20.70
2023-09-21T02:39:11.460Z,20.68
2023-09-21T02:49:15.820Z,20.20
2023-09-21T02:59:18.355Z,20.50
2023-09-21T03:09:23.747Z,20.41
2023-09-21T03:19:26.534Z,20.36
2023-09-21T03:29:30.775Z,20.14
2023-09-21T03:39:33.367Z,19.93
2023-09-21T03:49:37.263Z,19.76
2023-09-21T03:59:41.108Z,19.65
2023-09-21T04:09:45.717Z,19.54
2023-09-21T04:19:48.797Z,19.42
2023-09-21T04:29:52.813Z,19.35
2023-09-21T04:39:55.278Z,19.34
2023-09-21T04:49:59.603Z,19.23
2023-09-21T05:00:05.688Z,19.19
2023-09-21T05:10:13.497Z,19.11
2023-09-21T05:20:16.730Z,19.09
2023-09-21T05:30:20.771Z,18.89
2023-09-21T05:40:23.288Z,18.70
2023-09-21T05:50:27.097Z,18.92
2023-09-21T06:00:29.940Z,18.73
2023-09-21T06:10:33.822Z,18.81
2023-09-21T06:20:36.569Z,18.89
2023-09-21T06:30:40.406Z,18.88
2023-09-21T06:40:42.991Z,19.01
2023-09-21T06:50:46.944Z,19.15
2023-09-21T07:00:49.970Z,19.34
2023-09-21T07:10:53.804Z,19.35
2023-09-21T07:20:56.320Z,19.43
2023-09-21T07:31:02.865Z,19.50
2023-09-21T07:41:07.377Z,19.68
2023-09-21T07:51:14.218Z,19.82
2023-09-21T08:01:16.874Z,19.97
2023-09-21T08:11:20.701Z,20.05
2023-09-21T08:21:23.972Z,20.22
2023-09-21T08:31:29.098Z,20.48
2023-09-21T08:41:31.679Z,20.73
2023-09-21T08:51:38.639Z,20.85
2023-09-21T09:01:41.770Z,21.09
2023-09-21T09:11:46.919Z,21.43
2023-09-21T09:21:51.983Z,21.65
2023-09-21T09:31:55.974Z,21.80
2023-09-21T09:41:58.774Z,21.87
2023-09-21T09:52:03.082Z,22.03
2023-09-21T10:02:08.077Z,22.41
2023-09-21T10:12:13.027Z,22.61
2023-09-21T10:22:26.477Z,22.89
2023-09-21T10:32:42.831Z,23.74
2023-09-21T10:42:45.470Z,24.78
2023-09-21T10:52:52.120Z,25.01
2023-09-21T11:02:56.694Z,24.64
2023-09-21T11:13:01.141Z,24.39
2023-09-21T11:23:04.399Z,24.38
2023-09-21T11:33:09.879Z,24.28
2023-09-21T11:43:14.756Z,24.47
2023-09-21T11:53:21.041Z,25.51
2023-09-21T12:03:26.358Z,26.43
2023-09-21T12:13:30.451Z,25.60
2023-09-21T12:23:35.349Z,25.50
2023-09-21T12:33:43.977Z,26.00
2023-09-21T12:43:46.815Z,25.90
2023-09-21T12:53:50.617Z,25.87
2023-09-21T13:03:55.860Z,25.44
2023-09-21T13:13:59.762Z,26.12
2023-09-21T13:24:02.264Z,27.16
2023-09-21T13:34:06.253Z,27.80
2023-09-21T13:44:11.353Z,27.69
2023-09-21T13:54:15.195Z,26.49
2023-09-21T14:04:18.141Z,26.16
2023-09-21T14:14:22.239Z,26.65
2023-09-21T14:24:24.827Z,26.41
2023-09-21T14:34:31.021Z,26.20
2023-09-21T14:44:33.535Z,26.26
2023-09-21T14:54:37.483Z,25.91
2023-09-21T15:04:41.486Z,25.78
2023-09-21T15:14:45.790Z,25.51
2023-09-21T15:24:51.649Z,25.33
2023-09-21T15:34:55.632Z,25.15
2023-09-21T15:44:58.143Z,24.95
2023-09-21T15:55:04.302Z,24.84
2023-09-21T16:05:07.534Z,24.67
2023-09-21T16:15:12.056Z,24.55
2023-09-21T16:25:14.904Z,24.46
2023-09-21T16:35:19.847Z,24.40
2023-09-21T16:45:22.375Z,24.32
2023-09-21T16:55:26.329Z,24.07
2023-09-21T17:05:28.919Z,24.04
2023-09-21T17:15:32.772Z,23.88
2023-09-21T17:25:35.278Z,23.84
2023-09-21T17:35:39.147Z,23.76
2023-09-21T17:45:41.720Z,23.65
2023-09-21T17:55:45.649Z,23.58
2023-09-21T18:05:48.121Z,23.43
2023-09-21T18:15:52.730Z,23.42
2023-09-21T18:25:55.401Z,23.33
2023-09-21T18:35:59.252Z,22.68
2023-09-21T18:46:01.814Z,22.19
2023-09-21T18:56:07.047Z,21.01
2023-09-21T19:06:09.572Z,20.84
2023-09-21T19:16:13.776Z,20.19
2023-09-21T19:26:16.281Z,19.76
2023-09-21T19:36:20.105Z,19.26
2023-09-21T19:46:24.466Z,19.03
2023-09-21T19:56:28.472Z,19.18
2023-09-21T20:06:31.040Z,19.16
2023-09-21T20:16:37.187Z,19.14
2023-09-21T20:26:39.767Z,19.14
2023-09-21T20:36:43.874Z,19.14
2023-09-21T20:46:46.470Z,19.25
2023-09-21T20:56:51.416Z,19.01
2023-09-21T21:06:54.409Z,18.74
2023-09-21T21:16:58.275Z,18.69
2023-09-21T21:27:00.914Z,18.80
2023-09-21T21:37:04.739Z,18.69
2023-09-21T21:47:07.242Z,18.40
2023-09-21T21:57:12.010Z,18.65
2023-09-21T22:07:14.788Z,18.48
2023-09-21T22:17:18.694Z,18.31
2023-09-21T22:27:21.377Z,18.30
2023-09-21T22:37:25.949Z,18.25
2023-09-21T22:47:28.546Z,18.02
2023-09-21T22:57:34.720Z,18.05
2023-09-21T23:07:37.289Z,17.88
2023-09-21T23:17:42.198Z,18.14
2023-09-21T23:27:45.006Z,17.98
2023-09-21T23:37:50.132Z,17.78
2023-09-21T23:47:52.684Z,17.72
2023-09-21T23:57:56.608Z,17.33
